createdAt,value
2024-01-16T00:00:53.466Z,84.32
2024-01-16T00:03:20.708Z,84.57
2024-01-16T00:05:49.107Z,84.31
2024-01-16T00:08:16.470Z,83.99
2024-01-16T00:10:46.505Z,83.52
2024-01-16T00:13:15.129Z,83.88
2024-01-16T00:15:53.921Z,84.07
2024-01-16T00:18:21.915Z,84.12
2024-01-16T00:20:49.568Z,84.45
2024-01-16T00:23:24.474Z,84.20
2024-01-16T00:25:53.353Z,83.93
2024-01-16T00:28:23.127Z,83.53
2024-01-16T00:30:51.596Z,83.61
2024-01-16T00:33:25.035Z,84.02
2024-01-16T00:35:55.094Z,84.23
2024-01-16T00:38:23.701Z,84.33
2024-01-16T00:40:58.397Z,83.73
2024-01-16T00:43:49.322Z,83.74
2024-01-16T00:46:16.450Z,84.42
2024-01-16T00:48:44.956Z,84.17
2024-01-16T00:51:12.115Z,84.63
2024-01-16T00:53:52.387Z,85.08
2024-01-16T00:56:23.343Z,84.63
2024-01-16T00:58:50.846Z,85.19
2024-01-16T01:01:18.122Z,85.23
2024-01-16T01:03:45.477Z,85.12
2024-01-16T01:06:13.476Z,84.84
2024-01-16T01:08:40.771Z,84.66
2024-01-16T01:11:16.513Z,84.34
2024-01-16T01:13:44.332Z,83.54
2024-01-16T01:16:12.093Z,83.51
2024-01-16T01:18:41.546Z,83.71
2024-01-16T01:21:08.769Z,83.44
2024-01-16T01:23:36.280Z,84.16
2024-01-16T01:26:07.124Z,84.45
2024-01-16T01:28:34.313Z,84.08
2024-01-16T01:31:13.385Z,84.06
2024-01-16T01:33:41.829Z,83.93
2024-01-16T01:36:10.112Z,83.87
2024-01-16T01:38:37.403Z,84.11
2024-01-16T01:41:07.474Z,84.11
2024-01-16T01:43:38.317Z,84.23
2024-01-16T01:46:05.352Z,83.92
2024-01-16T01:48:33.587Z,84.31
2024-01-16T01:51:02.742Z,84.30
2024-01-16T01:53:32.556Z,84.21
2024-01-16T01:56:00.955Z,83.82
2024-01-16T01:58:30.915Z,83.41
2024-01-16T02:00:58.321Z,83.63
2024-01-16T02:03:30.540Z,84.12
2024-01-16T02:05:57.827Z,84.72
2024-01-16T02:08:25.767Z,84.62
2024-01-16T02:10:52.950Z,84.67
2024-01-16T02:13:24.852Z,84.15
2024-01-16T02:15:53.537Z,83.46
2024-01-16T02:18:32.818Z,83.79
2024-01-16T02:21:13.503Z,83.55
2024-01-16T02:23:53.404Z,83.65
2024-01-16T02:26:22.355Z,83.65
2024-01-16T02:28:58.547Z,83.88
2024-01-16T02:31:25.903Z,83.67
2024-01-16T02:33:56.347Z,83.92
2024-01-16T02:36:26.043Z,84.23
2024-01-16T02:38:58.578Z,84.42
2024-01-16T02:41:27.489Z,84.81
2024-01-16T02:43:59.076Z,85.92
2024-01-16T02:46:26.384Z,85.04
2024-01-16T02:48:54.559Z,84.47
2024-01-16T02:51:22.938Z,85.61
2024-01-16T02:53:57.564Z,86.05
2024-01-16T02:56:30.060Z,86.40
2024-01-16T02:58:58.521Z,85.74
2024-01-16T03:01:35.267Z,86.29
2024-01-16T03:04:12.119Z,85.84
2024-01-16T03:06:39.246Z,85.00
2024-01-16T03:09:06.312Z,83.79
2024-01-16T03:11:34.707Z,83.31
2024-01-16T03:14:02.821Z,82.52
2024-01-16T03:16:30.131Z,83.00
2024-01-16T03:18:57.728Z,82.83
2024-01-16T03:21:24.985Z,82.91
2024-01-16T03:23:52.386Z,82.11
2024-01-16T03:26:23.731Z,82.77
2024-01-16T03:28:56.365Z,83.06
2024-01-16T03:31:38.517Z,82.71
2024-01-16T03:34:06.077Z,82.34
2024-01-16T03:36:34.023Z,82.71
2024-01-16T03:39:05.278Z,82.78
2024-01-16T03:41:32.370Z,82.81
2024-01-16T03:44:00.640Z,82.97
2024-01-16T03:46:27.692Z,82.68
2024-01-16T03:48:54.976Z,83.02
2024-01-16T03:51:25.054Z,82.91
2024-01-16T03:53:56.835Z,82.94
2024-01-16T03:56:24.662Z,83.78
2024-01-16T03:58:51.779Z,83.76
2024-01-16T04:01:35.667Z,83.29
2024-01-16T04:04:11.968Z,82.97
2024-01-16T04:06:42.230Z,82.68
2024-01-16T04:09:10.984Z,82.55
2024-01-16T04:11:38.838Z,82.72
2024-01-16T04:14:13.025Z,83.28
2024-01-16T04:16:40.214Z,83.62
2024-01-16T04:19:09.923Z,83.15
2024-01-16T04:21:38.039Z,83.33
2024-01-16T04:24:07.943Z,83.51
2024-01-16T04:26:57.134Z,83.05
2024-01-16T04:29:27.658Z,82.87
2024-01-16T04:31:55.065Z,83.03
2024-01-16T04:34:29.376Z,83.20
2024-01-16T04:37:05.880Z,83.20
2024-01-16T04:39:36.746Z,83.38
2024-01-16T04:42:04.254Z,83.09
2024-01-16T04:44:31.675Z,83.01
2024-01-16T04:47:03.683Z,82.97
2024-01-16T04:49:30.877Z,83.03
2024-01-16T04:52:08.139Z,83.51
2024-01-16T04:54:35.470Z,84.01
2024-01-16T04:57:03.592Z,83.36
2024-01-16T04:59:35.021Z,83.71
2024-01-16T05:02:02.611Z,83.73
2024-01-16T05:04:32.423Z,83.67
2024-01-16T05:06:59.415Z,83.98
2024-01-16T05:09:32.730Z,84.37
2024-01-16T05:12:09.473Z,84.09
2024-01-16T05:14:36.910Z,83.87
2024-01-16T05:17:06.870Z,84.64
2024-01-16T05:19:34.048Z,85.38
2024-01-16T05:22:04.493Z,86.53
2024-01-16T05:24:37.576Z,86.92
2024-01-16T05:27:06.175Z,86.59
2024-01-16T05:29:44.187Z,85.78
2024-01-16T05:32:22.986Z,85.01
2024-01-16T05:34:56.204Z,84.45
2024-01-16T05:37:30.956Z,84.27
2024-01-16T05:39:59.130Z,83.59
2024-01-16T05:42:29.343Z,83.39
2024-01-16T05:44:59.609Z,83.40
2024-01-16T05:47:32.073Z,83.99
2024-01-16T05:49:59.119Z,83.73
2024-01-16T05:52:26.349Z,83.32
2024-01-16T05:54:53.353Z,83.45
2024-01-16T05:57:22.979Z,83.11
2024-01-16T05:59:51.137Z,82.61
2024-01-16T06:02:18.207Z,82.49
2024-01-16T06:04:49.627Z,82.84
2024-01-16T06:07:17.806Z,83.24
2024-01-16T06:09:47.236Z,83.36
2024-01-16T06:12:15.677Z,83.70
2024-01-16T06:14:57.780Z,83.56
2024-01-16T06:17:29.380Z,82.91
2024-01-16T06:19:58.548Z,83.15
2024-01-16T06:22:29.728Z,82.98
2024-01-16T06:24:59.614Z,83.12
2024-01-16T06:27:28.186Z,82.88
2024-01-16T06:29:56.404Z,82.95
2024-01-16T06:32:25.166Z,82.99
2024-01-16T06:34:52.639Z,83.16
2024-01-16T06:37:22.016Z,82.66
2024-01-16T06:39:49.283Z,82.28
2024-01-16T06:42:19.135Z,82.67
2024-01-16T06:44:46.285Z,83.55
2024-01-16T06:47:18.229Z,83.39
2024-01-16T06:49:45.774Z,83.58
2024-01-16T06:52:13.051Z,83.65
2024-01-16T06:54:42.323Z,83.77
2024-01-16T06:57:09.395Z,83.45
2024-01-16T06:59:38.680Z,83.67
2024-01-16T07:02:09.500Z,84.11
2024-01-16T07:04:37.078Z,84.81
2024-01-16T07:07:04.438Z,84.64
2024-01-16T07:09:33.125Z,86.15
2024-01-16T07:12:02.385Z,86.50
2024-01-16T07:14:29.866Z,85.74
2024-01-16T07:16:56.878Z,85.38
2024-01-16T07:19:24.251Z,85.37
2024-01-16T07:21:51.838Z,84.32
2024-01-16T07:24:21.303Z,83.97
2024-01-16T07:26:50.654Z,84.28
2024-01-16T07:29:17.671Z,84.09
2024-01-16T07:31:49.228Z,85.16
2024-01-16T07:34:21.625Z,84.83
2024-01-16T07:36:50.865Z,84.86
2024-01-16T07:39:17.805Z,84.14
2024-01-16T07:41:44.860Z,84.00
2024-01-16T07:44:16.278Z,84.63
2024-01-16T07:46:49.905Z,84.42
2024-01-16T07:49:17.694Z,84.15
2024-01-16T07:51:47.374Z,83.45
2024-01-16T07:54:16.110Z,83.25
2024-01-16T07:56:44.946Z,83.61
2024-01-16T07:59:13.344Z,84.37
2024-01-16T08:01:40.383Z,84.23
2024-01-16T08:04:12.321Z,83.73
2024-01-16T08:06:40.162Z,83.70
2024-01-16T08:09:07.961Z,83.65
2024-01-16T08:11:42.716Z,83.25
2024-01-16T08:14:13.716Z,83.07
2024-01-16T08:16:40.779Z,83.38
2024-01-16T08:19:10.897Z,83.89
2024-01-16T08:21:42.251Z,83.98
2024-01-16T08:24:09.350Z,83.83
2024-01-16T08:26:36.383Z,83.64
2024-01-16T08:29:05.187Z,83.17
2024-01-16T08:31:32.555Z,82.57
2024-01-16T08:34:08.719Z,82.40
2024-01-16T08:36:37.104Z,81.65
2024-01-16T08:39:07.266Z,82.29
2024-01-16T08:41:39.269Z,82.30
2024-01-16T08:44:07.878Z,82.35
2024-01-16T08:46:50.631Z,82.27
2024-01-16T08:49:21.803Z,81.66
2024-01-16T08:51:51.568Z,81.29
2024-01-16T08:54:19.055Z,81.34
2024-01-16T08:56:54.707Z,81.59
2024-01-16T08:59:23.158Z,81.74
2024-01-16T09:01:50.526Z,82.14
2024-01-16T09:04:19.412Z,81.59
2024-01-16T09:06:51.912Z,81.94
2024-01-16T09:09:31.687Z,82.36
2024-01-16T09:11:59.600Z,82.11
2024-01-16T09:14:28.487Z,81.98
2024-01-16T09:16:59.817Z,82.01
2024-01-16T09:19:29.982Z,81.41
2024-01-16T09:22:02.388Z,81.79
2024-01-16T09:24:32.151Z,81.46
2024-01-16T09:27:07.288Z,81.38
2024-01-16T09:29:36.723Z,81.24
2024-01-16T09:32:04.157Z,80.82
2024-01-16T09:34:31.277Z,80.78
2024-01-16T09:37:03.026Z,81.23
2024-01-16T09:39:34.625Z,81.05
2024-01-16T09:42:05.875Z,80.63
2024-01-16T09:44:35.866Z,81.01
2024-01-16T09:47:05.091Z,81.61
2024-01-16T09:49:32.454Z,81.15
2024-01-16T09:52:03.562Z,81.41
2024-01-16T09:54:37.035Z,82.02
2024-01-16T09:57:08.134Z,82.38
2024-01-16T09:59:37.883Z,82.51
2024-01-16T10:02:08.132Z,82.91
2024-01-16T10:04:43.701Z,83.12
2024-01-16T10:07:18.089Z,83.75
2024-01-16T10:09:52.316Z,83.48
2024-01-16T10:12:21.509Z,83.17
2024-01-16T10:14:53.475Z,82.51
2024-01-16T10:17:30.952Z,82.15
2024-01-16T10:20:06.135Z,81.55
2024-01-16T10:22:33.295Z,81.64
2024-01-16T10:25:18.427Z,80.94
2024-01-16T10:27:48.583Z,79.93
2024-01-16T10:30:16.197Z,79.35
2024-01-16T10:32:46.286Z,79.29
2024-01-16T10:35:17.949Z,79.45
2024-01-16T10:37:59.352Z,80.28
2024-01-16T10:40:32.407Z,81.53
2024-01-16T10:43:06.123Z,81.24
2024-01-16T10:45:34.948Z,81.51
2024-01-16T10:48:12.610Z,81.03
2024-01-16T10:50:40.670Z,80.37
2024-01-16T10:53:10.624Z,80.10
2024-01-16T10:55:56.854Z,80.45
2024-01-16T10:58:25.297Z,80.57
2024-01-16T11:00:55.124Z,80.16
2024-01-16T11:03:53.578Z,80.05
2024-01-16T11:06:25.192Z,79.16
2024-01-16T11:08:56.447Z,79.11
2024-01-16T11:11:26.829Z,78.53
2024-01-16T11:13:56.306Z,77.40
2024-01-16T11:16:24.900Z,76.72
2024-01-16T11:18:52.093Z,75.62
2024-01-16T11:21:21.966Z,75.54
2024-01-16T11:23:50.017Z,76.60
2024-01-16T11:26:41.193Z,76.92
2024-01-16T11:29:30.072Z,77.08
2024-01-16T11:32:13.274Z,77.05
2024-01-16T11:34:58.376Z,76.06
2024-01-16T11:37:29.624Z,75.36
2024-01-16T11:40:46.632Z,74.91
2024-01-16T11:43:37.625Z,75.09
2024-01-16T11:46:13.351Z,74.13
2024-01-16T11:48:44.665Z,74.83
2024-01-16T11:51:26.814Z,74.34
2024-01-16T11:53:54.908Z,74.25
2024-01-16T11:56:41.442Z,74.47
2024-01-16T11:59:54.740Z,73.82
2024-01-16T12:03:03.169Z,73.56
2024-01-16T12:05:32.333Z,73.68
2024-01-16T12:08:00.559Z,73.33
2024-01-16T12:10:27.622Z,72.55
2024-01-16T12:13:04.368Z,71.73
2024-01-16T12:15:36.808Z,72.75
2024-01-16T12:18:13.826Z,73.01
2024-01-16T12:20:47.527Z,72.73
2024-01-16T12:23:18.958Z,72.22
2024-01-16T12:26:01.570Z,72.32
2024-01-16T12:28:41.002Z,70.69
2024-01-16T12:31:16.127Z,68.89
2024-01-16T12:33:47.305Z,70.10
2024-01-16T12:36:19.039Z,70.03
2024-01-16T12:38:59.995Z,70.16
2024-01-16T12:41:39.087Z,69.90
2024-01-16T12:44:15.663Z,69.59
2024-01-16T12:46:45.935Z,68.96
2024-01-16T12:49:14.763Z,69.45
2024-01-16T12:51:43.781Z,69.70
2024-01-16T12:54:18.098Z,70.85
2024-01-16T12:56:46.753Z,70.61
2024-01-16T12:59:16.029Z,70.73
2024-01-16T13:01:48.143Z,70.85
2024-01-16T13:04:20.355Z,70.48
2024-01-16T13:06:51.436Z,70.76
2024-01-16T13:09:35.061Z,70.60
2024-01-16T13:12:02.587Z,70.62
2024-01-16T13:14:36.781Z,71.08
2024-01-16T13:17:09.567Z,70.99
2024-01-16T13:19:39.164Z,71.19
2024-01-16T13:22:17.627Z,71.68
2024-01-16T13:25:05.789Z,71.23
2024-01-16T13:27:42.007Z,71.67
2024-01-16T13:30:09.761Z,72.38
2024-01-16T13:32:44.737Z,72.46
2024-01-16T13:35:17.875Z,72.78
2024-01-16T13:37:45.364Z,71.53
2024-01-16T13:40:22.631Z,70.52
2024-01-16T13:42:51.613Z,69.86
2024-01-16T13:45:19.787Z,70.64
2024-01-16T13:47:51.781Z,71.89
2024-01-16T13:50:19.157Z,71.69
2024-01-16T13:52:46.138Z,71.80
2024-01-16T13:55:13.416Z,72.11
2024-01-16T13:57:43.545Z,72.18
2024-01-16T14:00:15.018Z,71.83
2024-01-16T14:02:50.137Z,71.95
2024-01-16T14:05:20.581Z,72.38
2024-01-16T14:07:54.088Z,72.33
2024-01-16T14:10:23.142Z,72.60
2024-01-16T14:12:53.681Z,71.75
2024-01-16T14:15:25.777Z,71.68
2024-01-16T14:18:00.471Z,71.28
2024-01-16T14:20:30.622Z,70.53
2024-01-16T14:23:03.552Z,70.96
2024-01-16T14:25:30.655Z,70.96
2024-01-16T14:28:12.501Z,71.20
2024-01-16T14:30:49.237Z,71.86
2024-01-16T14:33:17.577Z,72.08
2024-01-16T14:35:48.285Z,71.95
2024-01-16T14:38:15.869Z,72.21
2024-01-16T14:40:44.661Z,72.00
2024-01-16T14:43:12.212Z,72.63
2024-01-16T14:45:39.730Z,72.64
2024-01-16T14:48:08.004Z,72.56
2024-01-16T14:50:37.681Z,71.84
2024-01-16T14:53:07.444Z,71.38
2024-01-16T14:55:34.889Z,71.97
2024-01-16T14:58:03.743Z,72.95
2024-01-16T15:00:42.009Z,73.62
2024-01-16T15:03:22.650Z,74.04
2024-01-16T15:05:58.149Z,73.82
2024-01-16T15:08:32.813Z,73.61
2024-01-16T15:11:10.987Z,73.83
2024-01-16T15:13:41.956Z,74.24
2024-01-16T15:16:13.163Z,75.02
2024-01-16T15:18:44.686Z,75.25
2024-01-16T15:21:12.405Z,75.46
2024-01-16T15:23:42.859Z,75.51
2024-01-16T15:26:35.027Z,74.90
2024-01-16T15:29:07.276Z,74.60
2024-01-16T15:31:34.769Z,74.76
2024-01-16T15:34:20.778Z,74.61
2024-01-16T15:36:49.065Z,74.63
2024-01-16T15:39:17.397Z,74.61
2024-01-16T15:41:47.966Z,74.26
2024-01-16T15:44:26.409Z,73.32
2024-01-16T15:47:15.641Z,73.46
2024-01-16T15:49:56.856Z,73.61
2024-01-16T15:52:53.106Z,74.51
2024-01-16T15:55:48.131Z,74.73
2024-01-16T15:58:34.968Z,74.83
2024-01-16T16:01:43.422Z,74.83
2024-01-16T16:04:12.820Z,74.79
2024-01-16T16:06:42.135Z,74.56
2024-01-16T16:09:24.917Z,74.64
2024-01-16T16:12:04.946Z,74.63
2024-01-16T16:14:53.639Z,74.80
2024-01-16T16:17:38.382Z,74.80
2024-01-16T16:20:16.467Z,75.04
2024-01-16T16:22:48.233Z,74.58
2024-01-16T16:25:16.940Z,75.36
2024-01-16T16:28:02.328Z,76.35
2024-01-16T16:30:38.036Z,76.34
2024-01-16T16:33:10.250Z,75.63
2024-01-16T16:35:45.551Z,76.72
2024-01-16T16:38:12.863Z,76.63
2024-01-16T16:40:49.559Z,76.04
2024-01-16T16:43:32.315Z,76.56
2024-01-16T16:46:04.933Z,76.78
2024-01-16T16:48:33.442Z,77.09
2024-01-16T16:51:11.946Z,77.38
2024-01-16T16:53:44.368Z,77.38
2024-01-16T16:56:17.414Z,76.34
2024-01-16T16:58:48.279Z,76.21
2024-01-16T17:01:20.370Z,76.37
2024-01-16T17:03:54.903Z,76.11
2024-01-16T17:06:27.994Z,75.60
2024-01-16T17:08:55.898Z,75.43
2024-01-16T17:11:27.157Z,75.09
2024-01-16T17:13:59.697Z,74.89
2024-01-16T17:16:30.060Z,75.33
2024-01-16T17:18:59.771Z,75.84
2024-01-16T17:21:28.350Z,75.70
2024-01-16T17:24:08.690Z,75.17
2024-01-16T17:26:41.470Z,74.79
2024-01-16T17:29:09.485Z,74.21
2024-01-16T17:31:38.623Z,74.22
2024-01-16T17:34:06.910Z,74.92
2024-01-16T17:36:40.544Z,74.81
2024-01-16T17:39:13.530Z,75.10
2024-01-16T17:41:49.094Z,74.94
2024-01-16T17:44:17.922Z,74.99
2024-01-16T17:46:47.677Z,75.02
2024-01-16T17:49:20.738Z,75.11
2024-01-16T17:51:49.873Z,74.58
2024-01-16T17:54:19.924Z,74.58
2024-01-16T17:56:49.148Z,74.81
2024-01-16T17:59:18.016Z,74.88
2024-01-16T18:01:45.440Z,74.78
2024-01-16T18:04:21.366Z,74.57
2024-01-16T18:06:51.932Z,74.42
2024-01-16T18:09:34.557Z,74.85
2024-01-16T18:12:06.389Z,74.50
2024-01-16T18:14:48.579Z,74.23
2024-01-16T18:17:15.712Z,74.44
2024-01-16T18:19:45.137Z,73.84
2024-01-16T18:22:20.408Z,73.87
2024-01-16T18:25:00.583Z,73.81
2024-01-16T18:27:27.650Z,73.84
2024-01-16T18:30:00.281Z,73.67
2024-01-16T18:32:29.063Z,73.75
2024-01-16T18:35:00.363Z,73.85
2024-01-16T18:37:35.587Z,74.01
2024-01-16T18:40:04.062Z,73.06
2024-01-16T18:42:31.660Z,73.46
2024-01-16T18:45:00.127Z,73.47
2024-01-16T18:47:28.008Z,73.75
2024-01-16T18:49:55.590Z,74.15
2024-01-16T18:52:24.358Z,74.10
2024-01-16T18:54:56.816Z,73.82
2024-01-16T18:57:27.649Z,73.73
2024-01-16T18:59:58.082Z,73.81
2024-01-16T19:02:29.571Z,74.40
2024-01-16T19:05:09.397Z,74.76
2024-01-16T19:07:40.012Z,74.80
2024-01-16T19:10:18.874Z,74.16
2024-01-16T19:13:06.320Z,74.15
2024-01-16T19:15:37.403Z,73.43
2024-01-16T19:18:12.204Z,74.30
2024-01-16T19:20:47.269Z,74.28
2024-01-16T19:23:20.114Z,74.24
2024-01-16T19:25:56.716Z,74.16
2024-01-16T19:32:00.604Z,74.44
2024-01-16T19:34:46.059Z,74.29
2024-01-16T19:37:27.535Z,74.67
2024-01-16T19:39:58.597Z,74.38
2024-01-16T19:42:42.660Z,74.71
2024-01-16T19:45:20.287Z,74.91
2024-01-16T19:48:08.246Z,74.39
2024-01-16T19:50:47.482Z,74.47
2024-01-16T19:53:21.437Z,74.77
2024-01-16T19:55:52.713Z,74.66
2024-01-16T20:01:08.267Z,73.86
2024-01-16T20:03:44.774Z,73.88
2024-01-16T20:06:20.483Z,74.49
2024-01-16T20:08:54.514Z,73.89
2024-01-16T20:11:35.329Z,73.90
2024-01-16T20:14:09.118Z,73.53
2024-01-16T20:16:38.803Z,73.73
2024-01-16T20:19:22.406Z,73.89
2024-01-16T20:21:55.547Z,73.21
2024-01-16T20:24:40.985Z,73.05
2024-01-16T20:27:15.743Z,73.56
2024-01-16T20:30:08.286Z,74.01
2024-01-16T20:32:36.935Z,74.12
2024-01-16T20:35:05.331Z,73.33
2024-01-16T20:37:39.720Z,73.43
2024-01-16T20:40:07.834Z,73.50
2024-01-16T20:42:39.324Z,73.59
2024-01-16T20:45:07.753Z,73.28
2024-01-16T20:50:53.517Z,72.87
2024-01-16T20:53:52.742Z,73.81
2024-01-16T20:56:51.686Z,73.42
2024-01-16T20:59:42.058Z,73.91
2024-01-16T21:02:47.377Z,73.97
2024-01-16T21:08:37.832Z,72.72
2024-01-16T21:11:10.459Z,73.18
2024-01-16T21:13:56.575Z,73.62
2024-01-16T21:16:54.177Z,73.56
2024-01-16T21:19:47.622Z,73.27
2024-01-16T21:22:36.726Z,73.06
2024-01-16T21:25:11.611Z,73.74
2024-01-16T21:27:50.619Z,73.36
2024-01-16T21:30:28.447Z,72.97
2024-01-16T21:33:00.681Z,73.59
2024-01-16T21:35:42.757Z,73.13
2024-01-16T21:38:23.017Z,72.89
2024-01-16T21:41:06.032Z,73.35
2024-01-16T21:43:54.578Z,73.36
2024-01-16T21:46:49.860Z,73.76
2024-01-16T21:49:31.192Z,73.73
2024-01-16T21:52:08.291Z,73.74
2024-01-16T21:54:44.680Z,74.25
2024-01-16T21:57:26.598Z,73.84
2024-01-16T22:00:15.328Z,74.20
2024-01-16T22:03:18.445Z,74.91
2024-01-16T22:05:47.207Z,75.02
2024-01-16T22:08:14.611Z,75.33
2024-01-16T22:10:43.707Z,75.66
2024-01-16T22:13:29.648Z,76.13
2024-01-16T22:15:57.843Z,76.89
2024-01-16T22:18:25.263Z,77.46
2024-01-16T22:20:52.832Z,77.86
2024-01-16T22:23:21.010Z,78.06
2024-01-16T22:25:48.621Z,78.33
2024-01-16T22:28:22.915Z,78.25
2024-01-16T22:30:50.069Z,78.16
2024-01-16T22:33:20.867Z,78.63
2024-01-16T22:35:48.072Z,79.12
2024-01-16T22:38:22.389Z,79.67
2024-01-16T22:40:49.762Z,80.25
2024-01-16T22:43:18.552Z,80.27
2024-01-16T22:45:46.828Z,80.11
2024-01-16T22:48:14.781Z,80.39
2024-01-16T22:50:51.111Z,80.15
2024-01-16T22:53:26.823Z,80.56
2024-01-16T22:56:02.187Z,80.96
2024-01-16T22:58:36.680Z,80.99
2024-01-16T23:01:08.934Z,81.43
2024-01-16T23:03:36.720Z,81.24
2024-01-16T23:06:04.210Z,81.06
2024-01-16T23:08:31.869Z,81.31
2024-01-16T23:10:59.283Z,81.50
2024-01-16T23:13:26.509Z,81.52
2024-01-16T23:15:54.903Z,81.11
2024-01-16T23:18:27.123Z,81.68
2024-01-16T23:20:57.720Z,81.89
2024-01-16T23:23:25.888Z,81.70
2024-01-16T23:25:56.666Z,81.48
2024-01-16T23:28:26.958Z,81.48
2024-01-16T23:30:54.031Z,81.63
2024-01-16T23:33:21.397Z,81.03
2024-01-16T23:35:48.687Z,80.89
2024-01-16T23:38:17.705Z,81.20
2024-01-16T23:40:44.905Z,81.46
2024-01-16T23:43:16.092Z,81.52
2024-01-16T23:45:43.270Z,81.83
2024-01-16T23:48:10.734Z,81.64
2024-01-16T23:50:39.691Z,80.84
2024-01-16T23:53:08.506Z,80.84
2024-01-16T23:55:43.131Z,81.06
2024-01-16T23:58:19.256Z,80.65
